Saturday, December 20, 2014
07:16 UTC
  |  Log In   |  Register Free
Airport Search:

Carmi Municipal Airport
(KCUL)

Carmi Municipal Airport Diagram
No Airport Diagram Available

FAA data valid effective November 13, 2014 - January 08, 2015 (unless otherwise noted).

 
 
 
 
 
 
 
 
 
 
 
 
 
 

Current Aviation Weather for Carmi Municipal Airport (KCUL)

The most recent METAR observation for KCUL was updated at: 2112
METAR Summary (Translated METAR)
KCUL
182055Z AUTO 00000KT 7SM BKN045 OVC075 02/M02 A3024 RMK AO2 T00161020
KFWC
182055Z AUTO 02003KT 10SM OVC050 00/M04 A3023 RMK AO1 T00031041
(22.1 nm NW from KCUL)
KHSB
182055Z AUTO 00000KT 7SM BKN016 OVC036 01/M02 A3026 RMK AO2 T00101019
(26.2 nm SW from KCUL)
TAF
No TAF information found within 50 nm of KCUL
  Airport Weather Conditions for KCUL

 Current Weather at CUL
34° F
Overcast
East winds at 3.5 mph
CUL NOAA Radar

Pressure: 30.28 in
Humidity: 85%
Wind: East at 3.5 MPH (3 KT)
Dew Point: 30.0°F
Visibility: 10.00 mi


Airport Weather Forecast for KCUL

Translated METAR and TAF for KCUL
Translated METAR for KCUL (0716 UTC 20 December 2014)
found at http://aviationweather.gov/adds/metars/
 
METAR text: KCUL 200655Z AUTO 00000KT 10SM SCT043 BKN055 OVC100 01/M01 A3028 RMK AO2 T00101011
Conditions at: KCUL (CARMI MUNI , IL, US) observed 0655 UTC 20 December 2014
Temperature: 1.0°C (34°F)
Dewpoint: -1.1°C (30°F) [RH = 86%]
Pressure (altimeter): 30.28 inches Hg (1025.5 mb)
Winds: calm
Visibility: 10 or more miles (16+ km)
Ceiling: 5500 feet AGL
Clouds: scattered clouds at 4300 feet AGL
broken clouds at 5500 feet AGL
overcast cloud deck at 10000 feet AGL
Weather: automated observation with no human augmentation;
there may or may not be significant weather present at this time
Translated TAF for KCUL

There is no translated TAF available for this airport

Find All Airport Services Find A Hotel Find A Rental Car Find A Golf Course Find A Restaurant $100 Hamburger



FBO's on the Field
FBO Company Facility Photos Services Transportation Aviation Fuel Prices: Prices include tax
Catering Weather Repair Courtesy Rental Type 100LL JetA JetA+ MOGAS 8087
 
Carmi Municipal Airport

This FBO has not yet been rated
FS:Shell
Last Updated: Nov-18
Login to update fuel prices
SS:
Contact Carmi Municipal AirportMore FBO Information
 
Carmi Municipal Airport

This FBO has not yet been rated
FS:Shell
Last Updated: Nov-14
Login to update fuel prices
SS:
Contact Carmi Municipal AirportMore FBO Information
 
Add another FBO Facility Photos Catering Weather Repair Courtesy Rental Type 100LL JetA JetA+ MOGAS 8087
Services Transportation Aviation Fuel Prices: Prices include tax


model-print
model-print
model-print
model-print